Time;durP1;ratioP1;P1;durP2;ratioP2;P2;SDS_P1;SDS_P2;PMS_P1;PMS_P2;Temp;Humidity;BMP_temperature;BMP_pressure;BME280_temperature;BME280_humidity;BME280_pressure;Samples;Min_cycle;Max_cycle;Signal;HPM_P1;HPM_P2
2022/03/02 00:01:50;;;;;;;25.55;12.80;;;7.40;45.20;;;;;;5057313;28;20021;-86
2022/03/02 00:04:16;;;;;;;25.58;12.57;;;7.60;44.70;;;;;;5056349;28;20028;-82
2022/03/02 00:06:41;;;;;;;29.58;13.38;;;7.70;44.00;;;;;;5074469;28;20057;-82
2022/03/02 00:09:07;;;;;;;24.45;13.02;;;7.80;44.20;;;;;;5057337;28;20070;-82
2022/03/02 00:11:33;;;;;;;23.60;12.48;;;7.80;43.50;;;;;;5056191;28;20036;-82
2022/03/02 00:14:00;;;;;;;21.63;11.02;;;7.80;43.30;;;;;;5074934;28;20111;-81
2022/03/02 00:16:28;;;;;;;21.05;10.77;;;7.40;43.30;;;;;;5057129;28;20024;-82
2022/03/02 00:18:57;;;;;;;20.90;11.02;;;6.50;44.30;;;;;;5057034;28;20020;-83
2022/03/02 00:21:24;;;;;;;24.48;10.63;;;6.30;44.50;;;;;;5074841;28;20028;-83
2022/03/02 00:23:50;;;;;;;20.77;9.55;;;6.60;44.40;;;;;;5056736;28;20039;-82
2022/03/02 00:26:16;;;;;;;17.58;9.10;;;7.00;44.60;;;;;;5074160;28;20064;-82
2022/03/02 00:28:42;;;;;;;23.92;9.45;;;7.30;42.80;;;;;;5056789;28;20056;-81
2022/03/02 00:31:08;;;;;;;16.77;9.25;;;7.60;41.80;;;;;;5057056;28;20039;-82
2022/03/02 00:33:35;;;;;;;21.95;9.75;;;7.90;41.30;;;;;;5074177;28;20395;-82
2022/03/02 00:36:02;;;;;;;21.23;10.43;;;7.80;41.50;;;;;;5056433;28;20021;-82
2022/03/02 00:38:27;;;;;;;19.17;10.05;;;7.90;41.90;;;;;;5056300;28;20051;-83
2022/03/02 00:40:53;;;;;;;17.08;8.85;;;7.70;41.30;;;;;;5056651;28;20475;-82
2022/03/02 00:43:19;;;;;;;18.73;9.18;;;7.20;41.70;;;;;;5074308;28;20021;-82
2022/03/02 00:45:47;;;;;;;20.73;9.52;;;7.30;42.20;;;;;;5056426;28;20422;-82
2022/03/02 00:48:13;;;;;;;18.25;9.07;;;7.40;42.10;;;;;;5055932;28;20075;-82
2022/03/02 00:50:40;;;;;;;20.17;10.48;;;7.40;42.10;;;;;;5074175;28;20036;-86
2022/03/02 00:53:07;;;;;;;20.20;10.02;;;7.40;42.50;;;;;;5073505;28;20103;-83
2022/03/02 00:55:33;;;;;;;22.70;10.48;;;7.10;43.00;;;;;;5056189;28;20073;-81
2022/03/02 00:58:00;;;;;;;26.98;11.90;;;6.90;43.40;;;;;;5055914;28;20017;-83
2022/03/02 01:00:26;;;;;;;21.60;10.80;;;6.90;43.30;;;;;;5055681;28;20032;-83
2022/03/02 01:02:52;;;;;;;19.67;10.05;;;6.90;42.90;;;;;;5056238;28;20021;-84
2022/03/02 01:05:18;;;;;;;18.92;9.10;;;6.40;43.40;;;;;;5055997;28;20051;-85
2022/03/02 01:07:43;;;;;;;19.67;9.98;;;6.30;43.60;;;;;;5053302;28;20029;-83
2022/03/02 01:10:09;;;;;;;24.58;10.52;;;6.60;43.60;;;;;;5055190;28;20120;-85
2022/03/02 01:12:36;;;;;;;20.45;9.95;;;6.70;43.50;;;;;;5055920;28;20036;-84
2022/03/02 01:15:03;;;;;;;20.33;9.88;;;6.80;43.50;;;;;;5055824;28;20119;-84
2022/03/02 01:17:29;;;;;;;19.15;9.02;;;6.80;42.90;;;;;;5056153;28;20032;-84
2022/03/02 01:19:54;;;;;;;16.83;8.85;;;6.40;43.10;;;;;;5055848;28;20024;-85
2022/03/02 01:22:21;;;;;;;17.90;8.70;;;6.30;43.50;;;;;;5055781;28;20028;-86
2022/03/02 01:24:46;;;;;;;19.20;8.23;;;6.50;43.50;;;;;;5035965;28;20403;-88
2022/03/02 01:27:12;;;;;;;19.45;9.52;;;6.90;42.90;;;;;;5054207;28;20024;-84
2022/03/02 01:29:38;;;;;;;16.13;7.75;;;7.10;42.80;;;;;;5055702;28;20482;-87
2022/03/02 01:32:08;;;;;;;16.67;7.55;;;7.20;42.20;;;;;;5055495;28;20025;-85
2022/03/02 01:34:34;;;;;;;16.20;8.60;;;7.20;42.30;;;;;;5073461;28;20046;-84
2022/03/02 01:37:00;;;;;;;16.00;7.65;;;7.10;42.30;;;;;;5055758;28;20055;-85
2022/03/02 01:39:26;;;;;;;14.73;7.90;;;6.60;42.50;;;;;;5073030;28;20093;-83
2022/03/02 01:41:52;;;;;;;15.68;7.93;;;6.30;42.70;;;;;;5055968;28;20376;-84
2022/03/02 01:44:18;;;;;;;15.65;7.75;;;6.10;43.30;;;;;;5073945;28;20029;-84
2022/03/02 01:46:44;;;;;;;14.15;7.30;;;6.30;43.30;;;;;;5073145;28;20044;-84
2022/03/02 01:49:10;;;;;;;14.85;7.65;;;6.50;43.40;;;;;;5073714;28;20051;-85
2022/03/02 01:51:37;;;;;;;15.07;7.93;;;6.50;43.50;;;;;;5055593;28;20471;-83
2022/03/02 01:54:03;;;;;;;14.95;7.55;;;6.70;43.40;;;;;;5055725;28;20166;-85
2022/03/02 01:56:29;;;;;;;15.40;8.20;;;6.80;43.30;;;;;;5055753;28;20112;-86
2022/03/02 01:58:55;;;;;;;14.55;7.63;;;6.70;43.30;;;;;;5055669;28;20051;-86
2022/03/02 02:01:21;;;;;;;17.52;7.85;;;6.40;43.30;;;;;;5055457;28;20504;-86
2022/03/02 02:03:47;;;;;;;18.83;7.90;;;5.90;44.00;;;;;;5055838;28;20029;-85
2022/03/02 02:06:17;;;;;;;15.00;7.72;;;5.40;44.90;;;;;;5075188;28;20368;-86
2022/03/02 02:08:43;;;;;;;17.48;8.52;;;5.40;45.20;;;;;;5059635;28;20054;-86
2022/03/02 02:11:10;;;;;;;17.85;8.35;;;5.60;45.30;;;;;;5059384;28;20036;-86
2022/03/02 02:13:37;;;;;;;18.25;8.43;;;6.00;44.80;;;;;;5059681;28;20055;-87
2022/03/02 02:16:04;;;;;;;16.48;8.40;;;6.20;44.60;;;;;;5059508;28;20145;-87
2022/03/02 02:18:34;;;;;;;17.63;8.13;;;6.50;44.30;;;;;;5059960;28;20475;-86
2022/03/02 02:21:16;;;;;;;17.33;8.67;;;6.50;44.30;;;;;;5077625;28;20024;-87
2022/03/02 02:23:41;;;;;;;17.77;8.68;;;6.70;43.90;;;;;;5077675;28;20024;-86
2022/03/02 02:26:08;;;;;;;17.38;7.70;;;6.60;44.00;;;;;;5059301;28;20047;-86
2022/03/02 02:28:34;;;;;;;16.80;8.50;;;6.70;43.90;;;;;;5059680;28;20033;-87
2022/03/02 02:31:01;;;;;;;17.88;9.32;;;6.80;43.90;;;;;;5076967;28;20043;-87
2022/03/02 02:33:33;;;;;;;17.30;8.02;;;6.50;44.10;;;;;;5076939;28;20029;-88
2022/03/02 02:36:05;;;;;;;16.20;8.35;;;6.10;44.90;;;;;;5059093;28;20028;-86
2022/03/02 02:38:31;;;;;;;16.65;8.10;;;5.90;45.90;;;;;;5039264;28;20037;-87
2022/03/02 02:40:57;;;;;;;16.88;8.93;;;5.70;46.30;;;;;;5054940;28;20032;-87
2022/03/02 02:43:25;;;;;;;18.45;8.57;;;5.60;46.50;;;;;;5076535;28;20078;-87
2022/03/02 02:45:52;;;;;;;18.98;8.05;;;5.60;46.50;;;;;;5055450;28;20033;-87
2022/03/02 02:48:20;;;;;;;16.33;8.10;;;5.60;46.70;;;;;;5055724;28;20087;-88
2022/03/02 02:50:49;;;;;;;18.83;9.57;;;5.40;47.20;;;;;;5055767;28;20112;-87
2022/03/02 02:53:16;;;;;;;13.98;7.70;;;5.30;47.20;;;;;;5055048;28;20078;-87
2022/03/02 02:55:54;;;;;;;16.67;7.63;;;5.40;47.10;;;;;;5055227;28;20258;-86
2022/03/02 02:58:19;;;;;;;17.35;8.43;;;5.40;47.20;;;;;;5055076;28;20021;-87
2022/03/02 03:00:48;;;;;;;14.90;7.82;;;5.50;47.40;;;;;;5055156;28;20027;-88
2022/03/02 03:03:18;;;;;;;18.00;8.10;;;5.50;47.20;;;;;;5055211;28;20483;-87
2022/03/02 03:05:47;;;;;;;16.73;8.38;;;5.40;47.50;;;;;;5055067;28;20492;-88
2022/03/02 03:08:14;;;;;;;12.32;7.20;;;5.70;47.20;;;;;;5039309;28;20021;-89
2022/03/02 03:10:51;;;;;;;17.13;7.80;;;6.00;46.80;;;;;;5055619;28;20483;-89
2022/03/02 03:13:17;;;;;;;18.17;8.55;;;6.00;46.50;;;;;;5035576;28;20166;-89
2022/03/02 03:15:50;;;;;;;16.67;8.40;;;5.90;46.90;;;;;;5052886;28;20028;-90
2022/03/02 03:18:16;;;;;;;16.90;8.32;;;5.80;47.30;;;;;;5054344;28;20017;-89
2022/03/02 03:20:47;;;;;;;16.70;8.55;;;6.00;47.10;;;;;;5054991;28;20166;-89
2022/03/02 03:23:13;;;;;;;18.02;8.80;;;5.90;47.20;;;;;;5055147;28;20025;-89
2022/03/02 03:25:39;;;;;;;14.52;7.40;;;5.70;47.50;;;;;;5055165;28;20044;-90
2022/03/02 03:28:06;;;;;;;16.23;8.05;;;5.60;47.40;;;;;;5055740;28;20057;-90
2022/03/02 03:30:32;;;;;;;18.55;8.20;;;5.10;48.40;;;;;;5056159;28;20082;-91
2022/03/02 03:32:58;;;;;;;16.88;8.25;;;4.90;48.90;;;;;;5056317;28;20021;-90
2022/03/02 03:35:35;;;;;;;16.80;8.93;;;4.90;48.90;;;;;;5055547;28;20134;-88
2022/03/02 03:38:02;;;;;;;15.82;8.00;;;4.80;48.70;;;;;;5053854;28;20062;-89
2022/03/02 03:40:28;;;;;;;16.13;7.47;;;4.70;48.80;;;;;;5056555;28;20447;-91
2022/03/02 03:42:55;;;;;;;18.05;8.18;;;4.40;49.00;;;;;;5058044;28;20060;-91
2022/03/02 03:45:21;;;;;;;16.48;8.27;;;4.50;49.10;;;;;;5058422;28;20649;-90
2022/03/02 03:47:53;;;;;;;15.55;7.07;;;4.80;48.70;;;;;;5058665;28;20037;-88
2022/03/02 03:50:20;;;;;;;15.27;8.07;;;5.00;48.00;;;;;;5061475;28;20459;-89
2022/03/02 03:52:46;;;;;;;17.15;8.40;;;4.80;48.10;;;;;;5059353;28;20547;-88
2022/03/02 03:55:19;;;;;;;18.15;8.05;;;4.90;48.30;;;;;;5059116;28;20115;-91
2022/03/02 03:57:54;;;;;;;19.08;7.75;;;4.80;48.30;;;;;;5058015;28;20174;-90
2022/03/02 04:00:20;;;;;;;16.52;7.65;;;4.70;48.60;;;;;;5058403;28;20035;-89
2022/03/02 04:02:48;;;;;;;16.55;7.95;;;4.80;48.90;;;;;;5058544;28;20071;-90
2022/03/02 04:05:21;;;;;;;15.73;7.65;;;4.80;48.90;;;;;;5058966;28;20028;-91
2022/03/02 04:07:59;;;;;;;17.10;7.65;;;5.20;48.50;;;;;;5057934;28;20484;-90
2022/03/02 04:10:25;;;;;;;16.95;7.75;;;5.60;47.90;;;;;;5058042;28;20387;-91
2022/03/02 04:12:51;;;;;;;13.52;7.00;;;5.70;47.40;;;;;;5057746;28;20025;-92
2022/03/02 04:15:18;;;;;;;14.88;7.25;;;5.70;47.10;;;;;;5057387;28;20024;-93
2022/03/02 04:17:44;;;;;;;14.30;7.47;;;5.80;47.10;;;;;;5056885;28;20532;-90
2022/03/02 04:20:16;;;;;;;17.00;7.60;;;5.40;47.50;;;;;;5057407;28;20048;-88
2022/03/02 04:22:45;;;;;;;15.23;7.25;;;5.20;47.90;;;;;;5057038;28;20494;-90
2022/03/02 04:25:11;;;;;;;14.95;7.43;;;5.20;48.00;;;;;;5057175;28;20132;-90
2022/03/02 04:27:37;;;;;;;15.55;7.43;;;5.40;47.90;;;;;;5056871;28;20115;-87
2022/03/02 04:30:07;;;;;;;16.08;7.57;;;5.50;47.50;;;;;;5056677;28;20030;-88
2022/03/02 04:32:39;;;;;;;15.68;7.72;;;5.60;47.90;;;;;;5056923;28;20028;-88
2022/03/02 04:35:07;;;;;;;16.63;7.90;;;5.70;47.70;;;;;;5056459;28;20038;-89
2022/03/02 04:37:43;;;;;;;17.98;7.72;;;5.60;47.50;;;;;;5056727;28;20100;-90
2022/03/02 04:40:11;;;;;;;15.55;7.65;;;5.40;47.90;;;;;;5056878;28;20020;-91
2022/03/02 04:42:40;;;;;;;16.90;8.43;;;5.30;48.20;;;;;;5056517;28;20115;-90
2022/03/02 04:45:10;;;;;;;17.60;8.30;;;4.90;48.80;;;;;;5056594;28;20551;-89
2022/03/02 04:47:39;;;;;;;17.10;8.27;;;4.70;49.60;;;;;;5053421;28;20044;-88
2022/03/02 04:50:06;;;;;;;17.35;8.35;;;4.40;50.10;;;;;;5053703;28;20033;-91
2022/03/02 04:52:32;;;;;;;17.13;8.35;;;4.20;50.70;;;;;;5052855;28;20039;-90
2022/03/02 04:55:06;;;;;;;16.58;8.57;;;4.20;50.40;;;;;;5053628;28;20025;-91
2022/03/02 04:57:51;;;;;;;17.17;9.02;;;4.20;50.50;;;;;;5052220;28;20025;-89
2022/03/02 05:00:25;;;;;;;14.45;7.63;;;4.50;49.60;;;;;;5053890;28;20032;-90
2022/03/02 05:02:56;;;;;;;15.95;8.23;;;4.10;49.70;;;;;;5052886;28;20480;-90
2022/03/02 05:05:26;;;;;;;14.68;7.85;;;4.00;50.00;;;;;;5053333;28;20100;-89
2022/03/02 05:07:52;;;;;;;;;;;3.90;50.40;;;;;;5053616;28;20021;-90
2022/03/02 05:10:22;;;;;;;17.52;7.82;;;4.20;50.10;;;;;;5053750;28;19912;-89
2022/03/02 05:12:49;;;;;;;17.17;8.20;;;4.50;49.40;;;;;;5052327;28;20036;-89
2022/03/02 05:15:16;;;;;;;18.85;8.18;;;4.80;48.90;;;;;;5052848;28;20028;-87
2022/03/02 05:17:47;;;;;;;16.73;8.18;;;4.90;48.00;;;;;;5052326;28;20036;-88
2022/03/02 05:20:14;;;;;;;16.65;7.80;;;4.90;47.40;;;;;;5052769;28;20017;-85
2022/03/02 05:22:51;;;;;;;15.20;7.78;;;4.70;47.50;;;;;;5051988;28;20036;-89
2022/03/02 05:25:17;;;;;;;15.13;8.25;;;4.30;48.20;;;;;;5052846;28;20141;-91
2022/03/02 05:27:45;;;;;;;17.25;8.20;;;4.90;47.60;;;;;;5052964;28;20048;-89
2022/03/02 05:30:13;;;;;;;18.70;9.25;;;5.30;47.20;;;;;;5052358;28;20021;-88
2022/03/02 05:32:40;;;;;;;21.63;8.68;;;5.40;46.90;;;;;;5052454;28;20067;-91
2022/03/02 05:35:06;;;;;;;18.83;9.70;;;5.30;47.30;;;;;;5052579;28;20457;-88
2022/03/02 05:37:34;;;;;;;17.95;9.00;;;5.30;46.90;;;;;;5052608;28;20435;-87
2022/03/02 05:40:00;;;;;;;16.55;8.63;;;5.40;46.90;;;;;;5052732;28;20037;-90
2022/03/02 05:42:26;;;;;;;18.67;9.45;;;5.40;46.70;;;;;;5052690;28;20124;-90
2022/03/02 05:44:52;;;;;;;18.27;9.15;;;5.30;47.10;;;;;;5051852;28;20123;-90
2022/03/02 05:47:17;;;;;;;17.35;8.55;;;5.40;47.10;;;;;;5051900;28;20438;-89
2022/03/02 05:49:43;;;;;;;19.20;9.30;;;5.10;47.40;;;;;;5052768;28;20033;-88
2022/03/02 05:52:09;;;;;;;17.02;8.43;;;4.80;47.50;;;;;;5052023;28;20021;-88
2022/03/02 05:54:35;;;;;;;19.63;8.93;;;4.50;48.00;;;;;;5052699;28;20032;-88
2022/03/02 05:57:04;;;;;;;21.67;9.52;;;4.40;48.10;;;;;;5052473;28;20021;-88
2022/03/02 05:59:29;;;;;;;24.77;13.23;;;4.70;48.20;;;;;;5068861;28;20029;-89
2022/03/02 06:01:55;;;;;;;25.27;12.10;;;5.40;46.90;;;;;;5052496;28;20033;-89
2022/03/02 06:04:21;;;;;;;37.50;16.00;;;5.70;46.80;;;;;;5052286;28;20044;-86
2022/03/02 06:06:46;;;;;;;31.30;15.57;;;6.00;46.80;;;;;;5051895;28;20468;-86
2022/03/02 06:09:17;;;;;;;26.50;12.65;;;6.10;46.60;;;;;;5052315;28;20036;-85
2022/03/02 06:11:43;;;;;;;22.70;10.43;;;6.30;46.70;;;;;;5052425;28;20125;-85
2022/03/02 06:14:10;;;;;;;20.55;10.55;;;6.10;47.10;;;;;;5052432;28;20476;-86
2022/03/02 06:16:36;;;;;;;21.98;10.57;;;5.80;47.90;;;;;;5051814;28;20029;-86
2022/03/02 06:19:02;;;;;;;23.05;11.10;;;5.90;48.20;;;;;;5051810;28;20020;-88
2022/03/02 06:21:30;;;;;;;17.35;9.73;;;5.70;48.70;;;;;;5085736;28;20021;-86
2022/03/02 06:23:57;;;;;;;20.73;10.98;;;5.60;48.80;;;;;;5052174;28;20515;-86
2022/03/02 06:26:25;;;;;;;20.77;10.43;;;5.60;49.50;;;;;;5052364;28;20029;-84
2022/03/02 06:28:51;;;;;;;24.45;11.07;;;5.70;49.30;;;;;;5052319;28;20025;-86
2022/03/02 06:31:18;;;;;;;19.40;10.10;;;5.50;49.80;;;;;;5052061;28;20021;-85
2022/03/02 06:33:45;;;;;;;22.70;11.40;;;5.60;49.70;;;;;;5052031;28;20368;-84
2022/03/02 06:36:10;;;;;;;24.23;12.18;;;5.90;49.40;;;;;;5052147;28;20044;-87
2022/03/02 06:38:36;;;;;;;20.88;10.15;;;6.20;49.10;;;;;;5066068;28;20029;-86
2022/03/02 06:41:14;;;;;;;23.25;11.52;;;6.30;48.30;;;;;;5051785;28;20398;-86
2022/03/02 06:43:51;;;;;;;25.23;11.10;;;6.20;49.10;;;;;;5052034;28;20017;-85
2022/03/02 06:46:27;;;;;;;21.48;10.63;;;6.20;47.90;;;;;;5051675;28;20053;-84
2022/03/02 06:49:08;;;;;;;20.60;10.15;;;6.40;48.30;;;;;;5039608;28;20031;-84
2022/03/02 06:51:39;;;;;;;22.25;9.70;;;6.50;48.10;;;;;;5052472;28;20028;-84
2022/03/02 06:54:09;;;;;;;20.23;9.73;;;6.70;46.20;;;;;;4710414;28;10000106;-84
2022/03/02 06:56:49;;;;;;;20.25;10.60;;;6.90;45.10;;;;;;5035083;28;20021;-82
2022/03/02 06:59:23;;;;;;;17.98;8.65;;;7.10;45.50;;;;;;5040718;28;20356;-82
2022/03/02 07:01:51;;;;;;;16.27;9.07;;;7.70;44.20;;;;;;5054330;28;20067;-82
2022/03/02 07:04:19;;;;;;;19.10;9.70;;;7.70;43.70;;;;;;5052769;28;20037;-81
2022/03/02 07:06:47;;;;;;;23.10;10.60;;;8.20;43.70;;;;;;5052841;28;20040;-83
2022/03/02 07:09:15;;;;;;;23.58;11.43;;;8.80;42.90;;;;;;5053587;28;20036;-84
2022/03/02 07:11:42;;;;;;;28.35;14.38;;;9.20;41.70;;;;;;5053910;28;20082;-81
2022/03/02 07:14:10;;;;;;;51.22;27.25;;;9.50;40.70;;;;;;5052535;28;20063;-79
2022/03/02 07:16:36;;;;;;;96.95;48.88;;;10.00;40.00;;;;;;5052478;28;20029;-80
2022/03/02 07:19:01;;;;;;;29.60;16.25;;;10.20;39.10;;;;;;5052008;28;20029;-80
2022/03/02 07:21:29;;;;;;;22.83;12.00;;;10.20;38.30;;;;;;5032976;28;20032;-79
2022/03/02 07:24:16;;;;;;;21.00;10.98;;;10.40;38.70;;;;;;5032535;28;20025;-80
2022/03/02 07:26:45;;;;;;;19.10;9.32;;;10.60;38.20;;;;;;5032673;28;20034;-81
2022/03/02 07:29:13;;;;;;;21.77;10.20;;;10.70;37.70;;;;;;5050097;28;20017;-80
2022/03/02 07:31:41;;;;;;;19.75;10.00;;;10.80;37.50;;;;;;5051111;28;20025;-79
2022/03/02 07:34:12;;;;;;;17.27;7.93;;;10.70;37.60;;;;;;5051468;28;20480;-81
2022/03/02 07:36:40;;;;;;;18.45;8.18;;;10.60;36.60;;;;;;5051661;28;20146;-81
2022/03/02 07:39:10;;;;;;;17.92;9.32;;;10.60;37.20;;;;;;5051896;28;20048;-80
2022/03/02 07:41:36;;;;;;;15.65;8.05;;;10.70;37.40;;;;;;5051572;28;20108;-81
2022/03/02 07:44:04;;;;;;;13.93;7.82;;;10.60;36.70;;;;;;5050781;28;20096;-78
2022/03/02 07:46:32;;;;;;;20.65;9.82;;;10.40;36.90;;;;;;5051048;28;20095;-82
2022/03/02 07:48:59;;;;;;;15.55;7.70;;;10.40;36.80;;;;;;5051641;28;20029;-78
2022/03/02 07:51:26;;;;;;;16.88;8.05;;;10.50;37.10;;;;;;5050881;28;20025;-80
2022/03/02 07:53:58;;;;;;;16.67;7.80;;;10.70;37.00;;;;;;5050731;28;20028;-79
2022/03/02 07:56:28;;;;;;;13.65;7.60;;;10.90;37.30;;;;;;5051868;28;20029;-79
2022/03/02 07:58:58;;;;;;;12.15;6.35;;;11.10;37.20;;;;;;5051617;28;20034;-80
2022/03/02 08:01:25;;;;;;;12.88;6.30;;;11.20;36.10;;;;;;5050311;28;20024;-79
2022/03/02 08:03:52;;;;;;;12.52;6.72;;;11.30;35.70;;;;;;5050445;28;20033;-85
2022/03/02 08:06:18;;;;;;;13.60;7.00;;;11.00;36.20;;;;;;5053086;28;20028;-81
2022/03/02 08:08:44;;;;;;;13.93;7.00;;;10.90;35.90;;;;;;5049783;28;20317;-79
2022/03/02 08:11:10;;;;;;;14.63;7.53;;;11.10;36.80;;;;;;5050192;28;20025;-80
2022/03/02 08:13:36;;;;;;;12.73;6.95;;;11.10;35.30;;;;;;5083558;28;20040;-78
2022/03/02 08:16:02;;;;;;;13.98;7.07;;;11.30;35.80;;;;;;5050658;28;20099;-80
2022/03/02 08:18:31;;;;;;;14.63;7.53;;;11.60;35.60;;;;;;5051319;28;20052;-81
2022/03/02 08:20:59;;;;;;;10.60;6.38;;;12.10;35.40;;;;;;5050653;28;20179;-80
2022/03/02 08:23:35;;;;;;;13.50;6.97;;;12.90;34.40;;;;;;5051313;28;20117;-80
2022/03/02 08:26:03;;;;;;;13.65;7.18;;;13.80;33.00;;;;;;5051744;28;20029;-79
2022/03/02 08:28:33;;;;;;;16.02;9.00;;;14.90;32.60;;;;;;5049833;28;20017;-81
2022/03/02 08:30:59;;;;;;;;;;;16.20;32.10;;;;;;5049938;28;20047;-80
2022/03/02 08:33:27;;;;;;;12.50;7.38;;;17.30;30.50;;;;;;5049438;28;20371;-79
2022/03/02 08:35:54;;;;;;;16.15;6.53;;;16.90;30.50;;;;;;5050077;28;20020;-80
2022/03/02 08:38:21;;;;;;;12.43;6.32;;;16.70;30.80;;;;;;5049394;28;20055;-79
2022/03/02 08:40:47;;;;;;;15.85;7.70;;;17.50;30.70;;;;;;5043851;28;20037;-80
2022/03/02 08:43:15;;;;;;;14.82;6.32;;;18.50;30.20;;;;;;5073996;28;20032;-79
2022/03/02 08:45:48;;;;;;;10.77;6.50;;;18.50;29.70;;;;;;5050102;28;20064;-80
2022/03/02 08:48:15;;;;;;;10.93;7.00;;;18.70;30.00;;;;;;5049483;28;20025;-78
2022/03/02 08:50:42;;;;;;;14.18;7.20;;;18.80;29.50;;;;;;5052855;28;20028;-80
2022/03/02 08:53:12;;;;;;;14.45;6.38;;;19.40;29.50;;;;;;4703363;28;9999742;-80
2022/03/02 08:55:39;;;;;;;10.93;6.80;;;19.50;29.40;;;;;;5052533;28;20119;-81
2022/03/02 08:58:05;;;;;;;11.73;6.22;;;20.40;29.60;;;;;;5048775;28;20024;-79
2022/03/02 09:00:32;;;;;;;11.27;6.22;;;21.20;28.70;;;;;;5052455;28;20024;-81
2022/03/02 09:03:00;;;;;;;10.77;6.03;;;21.30;28.60;;;;;;5052388;28;20043;-79
2022/03/02 09:05:27;;;;;;;11.30;6.32;;;20.80;28.60;;;;;;5052301;28;20036;-80
2022/03/02 09:07:54;;;;;;;11.57;6.35;;;20.90;29.00;;;;;;5047943;28;20013;-77
2022/03/02 09:10:19;;;;;;;11.02;6.35;;;21.00;28.80;;;;;;5052468;28;20032;-80
2022/03/02 09:12:45;;;;;;;11.07;6.22;;;21.50;28.70;;;;;;5051645;28;20031;-81
2022/03/02 09:15:11;;;;;;;11.73;6.80;;;21.60;28.50;;;;;;5072485;28;20079;-78
2022/03/02 09:17:37;;;;;;;11.77;6.47;;;21.50;28.40;;;;;;5051738;28;20020;-80
2022/03/02 09:20:05;;;;;;;16.02;6.60;;;20.90;28.80;;;;;;5080335;28;20080;-80
2022/03/02 09:22:32;;;;;;;10.85;6.60;;;21.10;28.60;;;;;;5052332;28;20708;-81
2022/03/02 09:24:58;;;;;;;11.98;5.70;;;21.10;28.70;;;;;;5085288;28;20044;-81
2022/03/02 09:27:27;;;;;;;13.75;6.50;;;20.70;28.80;;;;;;4703385;28;9999738;-82
2022/03/02 09:29:56;;;;;;;11.20;6.03;;;19.70;28.80;;;;;;5071475;28;20058;-80
2022/03/02 09:32:24;;;;;;;8.93;5.70;;;19.80;28.80;;;;;;5052094;28;20070;-79
2022/03/02 09:34:57;;;;;;;10.70;6.13;;;20.20;29.10;;;;;;5072854;28;20107;-80
2022/03/02 09:37:25;;;;;;;12.45;6.53;;;21.50;29.00;;;;;;5054674;28;20021;-82
2022/03/02 09:39:51;;;;;;;11.10;6.40;;;22.20;28.60;;;;;;5073270;28;20086;-80
2022/03/02 09:42:30;;;;;;;10.43;5.72;;;23.10;28.00;;;;;;5054670;28;20116;-81
2022/03/02 09:45:03;;;;;;;11.15;6.63;;;23.60;28.00;;;;;;5055094;28;20043;-84
2022/03/02 09:47:40;;;;;;;10.00;6.05;;;23.80;27.50;;;;;;5072911;28;20056;-79
2022/03/02 09:50:07;;;;;;;11.20;7.65;;;24.00;27.60;;;;;;5054558;28;20024;-80
2022/03/02 09:52:37;;;;;;;11.70;6.43;;;24.20;27.60;;;;;;5054787;28;20222;-81
2022/03/02 09:55:05;;;;;;;11.98;6.47;;;24.80;27.50;;;;;;5054901;28;20128;-81
2022/03/02 09:57:33;;;;;;;13.57;6.22;;;25.40;27.30;;;;;;5055087;28;20036;-82
2022/03/02 09:59:59;;;;;;;30.40;6.75;;;26.80;27.40;;;;;;5054910;28;20111;-81
2022/03/02 10:02:43;;;;;;;13.93;6.70;;;27.00;27.30;;;;;;5055074;28;20166;-82
2022/03/02 10:05:18;;;;;;;12.05;7.53;;;27.40;27.20;;;;;;5054763;28;20032;-83
2022/03/02 10:07:53;;;;;;;10.38;6.40;;;27.80;27.40;;;;;;5055014;28;20071;-81
2022/03/02 10:10:23;;;;;;;10.90;6.50;;;28.00;27.10;;;;;;5054775;28;20128;-82
2022/03/02 10:12:54;;;;;;;10.20;6.60;;;26.80;27.00;;;;;;5055079;28;20016;-81
2022/03/02 10:15:19;;;;;;;12.68;8.63;;;27.10;26.60;;;;;;5072581;28;20086;-82
2022/03/02 10:17:48;;;;;;;13.80;7.57;;;26.70;27.20;;;;;;5055085;28;20029;-82
2022/03/02 10:20:20;;;;;;;14.00;8.45;;;26.10;26.90;;;;;;5072747;28;20020;-81
2022/03/02 10:22:46;;;;;;;12.13;7.15;;;25.80;27.20;;;;;;5054970;28;20025;-81
2022/03/02 10:25:15;;;;;;;15.05;9.27;;;25.80;27.60;;;;;;5054623;28;20047;-83
2022/03/02 10:28:02;;;;;;;12.00;7.70;;;26.50;27.60;;;;;;5074802;28;20024;-84
2022/03/02 10:30:41;;;;;;;10.82;7.20;;;27.60;27.40;;;;;;5076350;28;20024;-83
2022/03/02 10:33:19;;;;;;;11.95;7.43;;;27.00;26.80;;;;;;5076361;28;20021;-81
2022/03/02 10:36:12;;;;;;;13.02;8.63;;;26.80;26.70;;;;;;5076081;28;20038;-81
2022/03/02 10:38:59;;;;;;;14.32;7.60;;;26.40;27.20;;;;;;5058547;28;20032;-81
2022/03/02 10:41:32;;;;;;;13.88;7.07;;;27.00;27.10;;;;;;5058306;28;20016;-82
2022/03/02 10:44:21;;;;;;;11.95;7.20;;;27.40;27.00;;;;;;5058070;28;20025;-83
2022/03/02 10:46:59;;;;;;;11.57;6.90;;;27.10;27.60;;;;;;5058144;28;20064;-86
2022/03/02 10:49:27;;;;;;;10.07;6.13;;;25.70;26.90;;;;;;5058107;28;20042;-82
2022/03/02 10:51:55;;;;;;;11.95;7.05;;;25.70;27.40;;;;;;5058304;28;20525;-84
2022/03/02 10:54:24;;;;;;;11.45;7.00;;;26.00;27.40;;;;;;5058097;28;20025;-81
2022/03/02 10:56:54;;;;;;;12.57;7.68;;;25.70;27.40;;;;;;5058144;28;20024;-82
2022/03/02 10:59:24;;;;;;;13.05;7.75;;;25.50;27.20;;;;;;5058252;28;20379;-83
2022/03/02 11:01:52;;;;;;;15.73;8.07;;;25.70;27.50;;;;;;5058035;28;20532;-83
2022/03/02 11:04:20;;;;;;;12.00;7.65;;;26.30;27.90;;;;;;5057991;28;20518;-81
2022/03/02 11:06:46;;;;;;;11.23;7.20;;;25.10;27.10;;;;;;5075733;28;20142;-86
2022/03/02 11:09:15;;;;;;;12.50;6.88;;;24.50;27.00;;;;;;5057973;28;20045;-80
2022/03/02 11:11:42;;;;;;;11.98;7.03;;;24.30;27.50;;;;;;5075704;28;20032;-80
2022/03/02 11:14:09;;;;;;;14.65;9.45;;;24.20;27.40;;;;;;5057686;28;20036;-86
2022/03/02 11:16:35;;;;;;;13.48;8.50;;;24.00;27.80;;;;;;5057722;28;20065;-84
2022/03/02 11:19:15;;;;;;;14.02;7.55;;;23.70;27.60;;;;;;5057800;28;20054;-81
2022/03/02 11:21:43;;;;;;;9.95;6.97;;;23.30;28.00;;;;;;5057799;28;20532;-81
2022/03/02 11:24:15;;;;;;;13.98;7.63;;;22.40;27.70;;;;;;5057452;28;20128;-82
2022/03/02 11:26:41;;;;;;;13.67;7.40;;;20.50;28.80;;;;;;4019899;28;10000699;-81
2022/03/02 11:29:12;;;;;;;12.48;7.68;;;19.30;29.00;;;;;;5055789;28;20067;-85
2022/03/02 11:31:51;;;;;;;15.73;7.82;;;18.10;29.40;;;;;;5057394;28;20052;-82
2022/03/02 11:34:26;;;;;;;11.75;7.03;;;16.60;30.00;;;;;;5057324;28;20038;-83
2022/03/02 11:37:02;;;;;;;12.00;6.85;;;16.50;30.50;;;;;;5057365;28;20032;-81
2022/03/02 11:39:28;;;;;;;13.93;7.63;;;16.30;30.50;;;;;;5075456;28;20479;-82
2022/03/02 11:42:00;;;;;;;13.30;7.68;;;15.60;31.00;;;;;;5057093;28;20024;-81
2022/03/02 11:44:38;;;;;;;14.95;7.97;;;14.90;31.10;;;;;;5074841;28;20089;-79
2022/03/02 11:47:05;;;;;;;14.45;7.60;;;15.20;32.70;;;;;;5053690;28;20052;-81
2022/03/02 11:49:43;;;;;;;13.52;7.53;;;14.70;32.20;;;;;;5053752;28;20040;-80
2022/03/02 11:52:20;;;;;;;13.85;8.02;;;14.60;32.20;;;;;;5053676;28;20025;-80
2022/03/02 11:54:53;;;;;;;13.07;7.90;;;14.90;32.50;;;;;;5053511;28;20025;-80
2022/03/02 11:57:22;;;;;;;15.48;7.72;;;15.20;32.40;;;;;;5055001;28;20472;-80
2022/03/02 11:59:50;;;;;;;18.05;10.00;;;15.30;32.10;;;;;;5054851;28;20026;-83
2022/03/02 12:02:24;;;;;;;14.48;8.80;;;15.20;31.80;;;;;;5053576;28;20246;-79
2022/03/02 12:05:00;;;;;;;13.10;8.10;;;15.20;32.30;;;;;;5053489;28;20059;-84
2022/03/02 12:07:35;;;;;;;14.15;8.43;;;15.00;32.90;;;;;;5053780;28;20035;-81
2022/03/02 12:10:00;;;;;;;15.80;8.45;;;14.70;32.60;;;;;;5053677;28;20041;-82
2022/03/02 12:12:26;;;;;;;17.10;8.77;;;14.80;32.40;;;;;;5054331;28;20060;-83
2022/03/02 12:14:56;;;;;;;15.65;9.57;;;14.60;33.00;;;;;;5054803;28;20053;-85
2022/03/02 12:17:30;;;;;;;13.95;8.18;;;14.40;34.10;;;;;;5053271;28;20033;-84
2022/03/02 12:20:09;;;;;;;14.77;8.10;;;14.30;33.40;;;;;;5053142;28;20071;-82
2022/03/02 12:22:37;;;;;;;13.82;8.65;;;14.00;33.60;;;;;;5053319;28;20021;-79
2022/03/02 12:25:05;;;;;;;16.63;8.30;;;13.90;33.60;;;;;;5054183;28;20033;-84
2022/03/02 12:27:31;;;;;;;16.85;8.63;;;14.60;33.90;;;;;;5053319;28;20373;-79
2022/03/02 12:30:07;;;;;;;15.23;8.82;;;14.70;33.90;;;;;;5054247;28;20511;-79
2022/03/02 12:32:35;;;;;;;15.43;9.52;;;14.50;33.30;;;;;;5052774;28;20028;-79
2022/03/02 12:35:04;;;;;;;15.10;8.65;;;14.80;33.90;;;;;;5053172;28;20031;-83
2022/03/02 12:37:31;;;;;;;14.80;9.03;;;14.70;33.20;;;;;;5053907;28;20381;-82
2022/03/02 12:39:57;;;;;;;13.80;8.35;;;14.60;33.50;;;;;;5052468;28;20280;-85
2022/03/02 12:42:23;;;;;;;17.60;8.85;;;14.70;34.10;;;;;;5052988;28;20029;-82
2022/03/02 12:44:52;;;;;;;16.95;8.73;;;14.30;33.50;;;;;;5053599;28;20032;-80
2022/03/02 15:36:49;;;;;;;14.07;8.38;;;13.30;36.50;;;;;;5065761;27;1458239;-82
2022/03/02 15:39:23;;;;;;;14.85;8.48;;;13.70;36.40;;;;;;5092859;28;20504;-80